sensor_id;sensor_type;location;lat;lon;timestamp;temperature;humidity
439;DHT22;206;48.782;9.252;2023-08-17T00:00:08;24.00;63.60
439;DHT22;206;48.782;9.252;2023-08-17T00:02:35;24.00;64.30
439;DHT22;206;48.782;9.252;2023-08-17T00:05:01;24.00;64.60
439;DHT22;206;48.782;9.252;2023-08-17T00:07:27;23.90;64.50
439;DHT22;206;48.782;9.252;2023-08-17T00:09:52;24.00;65.30
439;DHT22;206;48.782;9.252;2023-08-17T00:12:18;23.90;65.40
439;DHT22;206;48.782;9.252;2023-08-17T00:14:43;23.90;66.10
439;DHT22;206;48.782;9.252;2023-08-17T00:17:09;24.00;65.30
439;DHT22;206;48.782;9.252;2023-08-17T00:19:34;23.90;65.50
439;DHT22;206;48.782;9.252;2023-08-17T00:22:00;23.90;66.10
439;DHT22;206;48.782;9.252;2023-08-17T00:24:25;24.00;66.20
439;DHT22;206;48.782;9.252;2023-08-17T00:26:51;23.90;65.40
439;DHT22;206;48.782;9.252;2023-08-17T00:29:17;24.00;66.20
439;DHT22;206;48.782;9.252;2023-08-17T00:31:42;23.90;66.10
439;DHT22;206;48.782;9.252;2023-08-17T00:34:08;23.90;66.10
439;DHT22;206;48.782;9.252;2023-08-17T00:36:33;23.80;66.00
439;DHT22;206;48.782;9.252;2023-08-17T00:38:59;23.80;67.00
439;DHT22;206;48.782;9.252;2023-08-17T00:41:25;23.80;67.00
439;DHT22;206;48.782;9.252;2023-08-17T00:43:50;23.70;67.20
439;DHT22;206;48.782;9.252;2023-08-17T00:46:16;23.70;67.60
439;DHT22;206;48.782;9.252;2023-08-17T00:48:42;23.70;68.20
439;DHT22;206;48.782;9.252;2023-08-17T00:51:09;23.70;68.90
439;DHT22;206;48.782;9.252;2023-08-17T00:53:34;23.80;68.60
439;DHT22;206;48.782;9.252;2023-08-17T00:56:01;23.80;68.10
439;DHT22;206;48.782;9.252;2023-08-17T00:58:27;23.80;67.00
439;DHT22;206;48.782;9.252;2023-08-17T01:00:53;23.90;67.40
439;DHT22;206;48.782;9.252;2023-08-17T01:03:20;23.90;67.30
439;DHT22;206;48.782;9.252;2023-08-17T01:05:47;24.00;66.20
439;DHT22;206;48.782;9.252;2023-08-17T01:08:13;24.00;66.20
439;DHT22;206;48.782;9.252;2023-08-17T01:10:55;23.90;66.10
439;DHT22;206;48.782;9.252;2023-08-17T01:13:29;23.90;66.10
439;DHT22;206;48.782;9.252;2023-08-17T01:15:58;23.90;66.10
439;DHT22;206;48.782;9.252;2023-08-17T01:18:34;23.90;66.10
439;DHT22;206;48.782;9.252;2023-08-17T01:21:01;23.90;66.20
439;DHT22;206;48.782;9.252;2023-08-17T01:23:27;23.90;66.10
439;DHT22;206;48.782;9.252;2023-08-17T01:25:53;23.80;66.60
439;DHT22;206;48.782;9.252;2023-08-17T01:28:19;23.80;66.00
439;DHT22;206;48.782;9.252;2023-08-17T01:30:55;23.90;66.70
439;DHT22;206;48.782;9.252;2023-08-17T01:33:35;23.90;67.20
439;DHT22;206;48.782;9.252;2023-08-17T01:38:34;23.90;67.00
439;DHT22;206;48.782;9.252;2023-08-17T01:41:02;23.80;66.90
439;DHT22;206;48.782;9.252;2023-08-17T01:43:30;23.80;68.00
439;DHT22;206;48.782;9.252;2023-08-17T01:45:56;23.80;68.00
439;DHT22;206;48.782;9.252;2023-08-17T01:48:21;23.80;68.20
439;DHT22;206;48.782;9.252;2023-08-17T01:50:47;23.80;68.20
439;DHT22;206;48.782;9.252;2023-08-17T01:53:12;23.80;68.50
439;DHT22;206;48.782;9.252;2023-08-17T01:55:39;23.80;68.80
439;DHT22;206;48.782;9.252;2023-08-17T01:58:05;23.70;68.70
439;DHT22;206;48.782;9.252;2023-08-17T02:00:34;23.70;68.60
439;DHT22;206;48.782;9.252;2023-08-17T02:02:59;23.80;68.10
439;DHT22;206;48.782;9.252;2023-08-17T02:05:25;23.90;68.10
439;DHT22;206;48.782;9.252;2023-08-17T02:07:53;23.90;68.40
439;DHT22;206;48.782;9.252;2023-08-17T02:10:19;23.90;67.70
439;DHT22;206;48.782;9.252;2023-08-17T02:12:45;23.90;67.50
439;DHT22;206;48.782;9.252;2023-08-17T02:15:10;23.90;67.00
439;DHT22;206;48.782;9.252;2023-08-17T02:17:36;24.00;66.60
439;DHT22;206;48.782;9.252;2023-08-17T02:20:02;24.00;66.60
439;DHT22;206;48.782;9.252;2023-08-17T02:22:29;24.00;66.20
439;DHT22;206;48.782;9.252;2023-08-17T02:24:54;24.00;66.20
439;DHT22;206;48.782;9.252;2023-08-17T02:27:20;24.00;66.20
439;DHT22;206;48.782;9.252;2023-08-17T02:29:45;24.00;66.20
439;DHT22;206;48.782;9.252;2023-08-17T02:32:11;24.00;65.60
439;DHT22;206;48.782;9.252;2023-08-17T02:34:37;24.00;66.20
439;DHT22;206;48.782;9.252;2023-08-17T02:37:02;24.00;66.20
439;DHT22;206;48.782;9.252;2023-08-17T02:39:28;24.00;66.20
439;DHT22;206;48.782;9.252;2023-08-17T02:41:53;23.90;66.30
439;DHT22;206;48.782;9.252;2023-08-17T02:44:20;24.00;66.70
439;DHT22;206;48.782;9.252;2023-08-17T02:46:45;23.90;67.00
439;DHT22;206;48.782;9.252;2023-08-17T02:49:11;23.80;68.30
439;DHT22;206;48.782;9.252;2023-08-17T02:51:36;23.80;67.80
439;DHT22;206;48.782;9.252;2023-08-17T02:54:02;23.80;68.50
439;DHT22;206;48.782;9.252;2023-08-17T02:56:27;23.80;67.60
439;DHT22;206;48.782;9.252;2023-08-17T02:58:53;23.80;67.70
439;DHT22;206;48.782;9.252;2023-08-17T03:01:19;23.80;68.00
439;DHT22;206;48.782;9.252;2023-08-17T03:03:44;23.80;68.40
439;DHT22;206;48.782;9.252;2023-08-17T03:06:10;23.80;67.80
439;DHT22;206;48.782;9.252;2023-08-17T03:08:35;23.70;68.20
439;DHT22;206;48.782;9.252;2023-08-17T03:11:01;23.70;68.30
439;DHT22;206;48.782;9.252;2023-08-17T03:13:26;23.80;68.10
439;DHT22;206;48.782;9.252;2023-08-17T03:15:52;23.80;68.10
439;DHT22;206;48.782;9.252;2023-08-17T03:18:17;23.80;68.60
439;DHT22;206;48.782;9.252;2023-08-17T03:20:45;23.80;68.80
439;DHT22;206;48.782;9.252;2023-08-17T03:23:11;23.70;68.90
439;DHT22;206;48.782;9.252;2023-08-17T03:25:37;23.70;69.50
439;DHT22;206;48.782;9.252;2023-08-17T03:28:03;23.70;70.10
439;DHT22;206;48.782;9.252;2023-08-17T03:30:29;23.60;70.40
439;DHT22;206;48.782;9.252;2023-08-17T03:32:54;23.60;71.00
439;DHT22;206;48.782;9.252;2023-08-17T03:35:20;23.60;71.30
439;DHT22;206;48.782;9.252;2023-08-17T03:37:46;23.60;71.00
439;DHT22;206;48.782;9.252;2023-08-17T03:40:12;23.50;71.70
439;DHT22;206;48.782;9.252;2023-08-17T03:42:37;23.50;72.60
439;DHT22;206;48.782;9.252;2023-08-17T03:45:03;23.40;73.10
439;DHT22;206;48.782;9.252;2023-08-17T03:47:29;23.40;73.40
439;DHT22;206;48.782;9.252;2023-08-17T03:49:55;23.40;73.20
439;DHT22;206;48.782;9.252;2023-08-17T03:52:20;23.40;73.90
439;DHT22;206;48.782;9.252;2023-08-17T03:54:46;23.30;74.00
439;DHT22;206;48.782;9.252;2023-08-17T03:57:12;23.30;74.60
439;DHT22;206;48.782;9.252;2023-08-17T03:59:38;23.40;74.10
439;DHT22;206;48.782;9.252;2023-08-17T04:02:03;23.40;74.00
439;DHT22;206;48.782;9.252;2023-08-17T04:04:29;23.40;73.80
439;DHT22;206;48.782;9.252;2023-08-17T04:06:54;23.40;73.50
439;DHT22;206;48.782;9.252;2023-08-17T04:09:20;23.40;73.30
439;DHT22;206;48.782;9.252;2023-08-17T04:11:46;23.40;73.20
439;DHT22;206;48.782;9.252;2023-08-17T04:14:11;23.40;73.20
439;DHT22;206;48.782;9.252;2023-08-17T04:16:37;23.40;72.90
439;DHT22;206;48.782;9.252;2023-08-17T04:19:03;23.40;72.60
439;DHT22;206;48.782;9.252;2023-08-17T04:21:28;23.30;73.40
439;DHT22;206;48.782;9.252;2023-08-17T04:23:54;23.30;74.10
439;DHT22;206;48.782;9.252;2023-08-17T04:26:19;23.30;73.50
439;DHT22;206;48.782;9.252;2023-08-17T04:28:46;23.30;73.60
439;DHT22;206;48.782;9.252;2023-08-17T04:31:11;23.30;73.10
439;DHT22;206;48.782;9.252;2023-08-17T04:33:37;23.30;72.90
439;DHT22;206;48.782;9.252;2023-08-17T04:36:03;23.40;72.60
439;DHT22;206;48.782;9.252;2023-08-17T04:38:28;23.30;72.90
439;DHT22;206;48.782;9.252;2023-08-17T04:40:54;23.30;72.70
439;DHT22;206;48.782;9.252;2023-08-17T04:43:19;23.30;73.30
439;DHT22;206;48.782;9.252;2023-08-17T04:45:45;23.30;73.20
439;DHT22;206;48.782;9.252;2023-08-17T04:48:13;23.30;73.50
439;DHT22;206;48.782;9.252;2023-08-17T04:50:39;23.20;73.60
439;DHT22;206;48.782;9.252;2023-08-17T04:53:04;23.30;74.30
439;DHT22;206;48.782;9.252;2023-08-17T04:55:30;23.30;74.60
439;DHT22;206;48.782;9.252;2023-08-17T04:57:57;23.30;73.70
439;DHT22;206;48.782;9.252;2023-08-17T05:00:23;23.30;72.90
439;DHT22;206;48.782;9.252;2023-08-17T05:02:55;23.30;72.00
439;DHT22;206;48.782;9.252;2023-08-17T05:05:21;23.30;72.50
439;DHT22;206;48.782;9.252;2023-08-17T05:07:47;23.30;72.00
439;DHT22;206;48.782;9.252;2023-08-17T05:10:13;23.40;71.60
439;DHT22;206;48.782;9.252;2023-08-17T05:12:38;23.50;70.80
439;DHT22;206;48.782;9.252;2023-08-17T05:15:04;23.50;70.10
439;DHT22;206;48.782;9.252;2023-08-17T05:17:30;23.50;70.10
439;DHT22;206;48.782;9.252;2023-08-17T05:19:55;23.50;69.80
439;DHT22;206;48.782;9.252;2023-08-17T05:22:21;23.50;69.80
439;DHT22;206;48.782;9.252;2023-08-17T05:24:47;23.60;69.00
439;DHT22;206;48.782;9.252;2023-08-17T05:27:13;23.60;69.10
439;DHT22;206;48.782;9.252;2023-08-17T05:29:38;23.70;68.20
439;DHT22;206;48.782;9.252;2023-08-17T05:32:04;23.70;67.90
439;DHT22;206;48.782;9.252;2023-08-17T05:34:30;23.70;67.60
439;DHT22;206;48.782;9.252;2023-08-17T05:36:55;23.80;66.00
439;DHT22;206;48.782;9.252;2023-08-17T05:39:21;23.80;66.00
439;DHT22;206;48.782;9.252;2023-08-17T05:41:46;23.90;66.10
439;DHT22;206;48.782;9.252;2023-08-17T05:44:12;23.90;65.40
439;DHT22;206;48.782;9.252;2023-08-17T05:46:39;24.00;64.80
439;DHT22;206;48.782;9.252;2023-08-17T05:49:05;24.10;64.10
439;DHT22;206;48.782;9.252;2023-08-17T05:51:30;24.10;63.30
439;DHT22;206;48.782;9.252;2023-08-17T05:53:56;24.10;62.30
439;DHT22;206;48.782;9.252;2023-08-17T05:56:22;24.20;61.20
439;DHT22;206;48.782;9.252;2023-08-17T05:58:48;24.20;60.50
439;DHT22;206;48.782;9.252;2023-08-17T06:01:14;24.20;60.60
439;DHT22;206;48.782;9.252;2023-08-17T06:03:39;24.30;60.50
439;DHT22;206;48.782;9.252;2023-08-17T06:06:05;24.30;59.20
439;DHT22;206;48.782;9.252;2023-08-17T06:08:31;24.30;59.50
439;DHT22;206;48.782;9.252;2023-08-17T06:10:56;24.20;59.00
439;DHT22;206;48.782;9.252;2023-08-17T06:13:22;24.20;58.10
439;DHT22;206;48.782;9.252;2023-08-17T06:15:48;24.20;58.50
439;DHT22;206;48.782;9.252;2023-08-17T06:18:13;24.20;58.60
439;DHT22;206;48.782;9.252;2023-08-17T06:20:39;24.30;58.60
439;DHT22;206;48.782;9.252;2023-08-17T06:23:04;24.30;58.50
439;DHT22;206;48.782;9.252;2023-08-17T06:25:30;24.40;57.70
439;DHT22;206;48.782;9.252;2023-08-17T06:27:56;24.40;56.50
439;DHT22;206;48.782;9.252;2023-08-17T06:30:22;24.50;56.60
439;DHT22;206;48.782;9.252;2023-08-17T06:32:47;24.60;56.00
439;DHT22;206;48.782;9.252;2023-08-17T06:35:13;24.60;55.40
439;DHT22;206;48.782;9.252;2023-08-17T06:37:38;24.60;55.40
439;DHT22;206;48.782;9.252;2023-08-17T06:40:05;24.60;55.80
439;DHT22;206;48.782;9.252;2023-08-17T06:42:31;24.70;54.90
439;DHT22;206;48.782;9.252;2023-08-17T06:44:56;24.80;54.50
439;DHT22;206;48.782;9.252;2023-08-17T06:47:22;24.80;54.00
439;DHT22;206;48.782;9.252;2023-08-17T06:49:47;24.70;53.50
439;DHT22;206;48.782;9.252;2023-08-17T06:52:13;24.80;53.60
439;DHT22;206;48.782;9.252;2023-08-17T06:54:39;24.70;53.40
439;DHT22;206;48.782;9.252;2023-08-17T06:57:05;24.70;53.20
439;DHT22;206;48.782;9.252;2023-08-17T06:59:31;24.70;53.20
439;DHT22;206;48.782;9.252;2023-08-17T07:01:58;24.70;53.00
439;DHT22;206;48.782;9.252;2023-08-17T07:04:24;24.70;53.30
439;DHT22;206;48.782;9.252;2023-08-17T07:06:50;24.70;53.00
439;DHT22;206;48.782;9.252;2023-08-17T07:09:16;24.70;52.00
439;DHT22;206;48.782;9.252;2023-08-17T07:11:41;24.70;52.50
439;DHT22;206;48.782;9.252;2023-08-17T07:14:07;24.60;52.80
439;DHT22;206;48.782;9.252;2023-08-17T07:16:33;24.70;52.90
439;DHT22;206;48.782;9.252;2023-08-17T07:18:58;24.70;52.30
439;DHT22;206;48.782;9.252;2023-08-17T07:21:24;24.80;51.90
439;DHT22;206;48.782;9.252;2023-08-17T07:23:51;24.80;52.70
439;DHT22;206;48.782;9.252;2023-08-17T07:26:17;24.90;51.80
439;DHT22;206;48.782;9.252;2023-08-17T07:28:44;24.90;51.70
439;DHT22;206;48.782;9.252;2023-08-17T07:31:10;25.00;51.80
439;DHT22;206;48.782;9.252;2023-08-17T07:33:36;25.20;50.90
439;DHT22;206;48.782;9.252;2023-08-17T07:36:02;25.30;50.30
439;DHT22;206;48.782;9.252;2023-08-17T07:38:28;25.40;49.10
439;DHT22;206;48.782;9.252;2023-08-17T07:40:54;25.50;47.40
439;DHT22;206;48.782;9.252;2023-08-17T07:43:20;25.50;47.80
439;DHT22;206;48.782;9.252;2023-08-17T07:45:46;25.60;48.00
439;DHT22;206;48.782;9.252;2023-08-17T07:48:11;25.70;47.60
439;DHT22;206;48.782;9.252;2023-08-17T07:50:37;25.80;47.60
439;DHT22;206;48.782;9.252;2023-08-17T07:53:03;25.80;45.30
439;DHT22;206;48.782;9.252;2023-08-17T07:55:28;25.90;45.30
439;DHT22;206;48.782;9.252;2023-08-17T07:57:54;26.10;44.80
439;DHT22;206;48.782;9.252;2023-08-17T08:00:19;26.20;44.00
439;DHT22;206;48.782;9.252;2023-08-17T08:02:46;26.40;43.20
439;DHT22;206;48.782;9.252;2023-08-17T08:05:12;26.60;42.60
439;DHT22;206;48.782;9.252;2023-08-17T08:07:39;26.70;41.50
439;DHT22;206;48.782;9.252;2023-08-17T08:10:05;26.80;40.30
439;DHT22;206;48.782;9.252;2023-08-17T08:12:31;26.80;41.00
439;DHT22;206;48.782;9.252;2023-08-17T08:14:56;27.00;40.60
439;DHT22;206;48.782;9.252;2023-08-17T08:17:22;27.00;39.00
439;DHT22;206;48.782;9.252;2023-08-17T08:19:47;27.00;38.80
439;DHT22;206;48.782;9.252;2023-08-17T08:22:13;27.10;38.50
439;DHT22;206;48.782;9.252;2023-08-17T08:24:39;27.20;38.30
439;DHT22;206;48.782;9.252;2023-08-17T08:27:06;27.30;38.40
439;DHT22;206;48.782;9.252;2023-08-17T08:29:32;27.40;38.50
439;DHT22;206;48.782;9.252;2023-08-17T08:31:58;27.50;37.60
439;DHT22;206;48.782;9.252;2023-08-17T08:34:25;27.60;37.40
439;DHT22;206;48.782;9.252;2023-08-17T08:36:50;27.70;37.40
439;DHT22;206;48.782;9.252;2023-08-17T08:39:16;27.90;36.40
439;DHT22;206;48.782;9.252;2023-08-17T08:41:42;28.00;34.50
439;DHT22;206;48.782;9.252;2023-08-17T08:44:07;27.90;35.30
439;DHT22;206;48.782;9.252;2023-08-17T08:46:34;27.90;36.00
439;DHT22;206;48.782;9.252;2023-08-17T08:49:03;27.80;36.00
439;DHT22;206;48.782;9.252;2023-08-17T08:51:31;27.80;36.30
439;DHT22;206;48.782;9.252;2023-08-17T08:54:01;27.90;36.00
439;DHT22;206;48.782;9.252;2023-08-17T08:56:32;28.00;35.70
439;DHT22;206;48.782;9.252;2023-08-17T08:59:01;28.10;35.20
439;DHT22;206;48.782;9.252;2023-08-17T09:01:27;28.10;34.50
439;DHT22;206;48.782;9.252;2023-08-17T09:03:54;28.10;34.70
439;DHT22;206;48.782;9.252;2023-08-17T09:06:21;28.20;34.60
439;DHT22;206;48.782;9.252;2023-08-17T09:08:49;28.30;34.30
439;DHT22;206;48.782;9.252;2023-08-17T09:11:14;28.50;33.80
439;DHT22;206;48.782;9.252;2023-08-17T09:13:40;28.50;33.30
439;DHT22;206;48.782;9.252;2023-08-17T09:16:05;28.40;33.10
439;DHT22;206;48.782;9.252;2023-08-17T09:18:31;28.50;32.90
439;DHT22;206;48.782;9.252;2023-08-17T09:20:57;28.50;32.90
439;DHT22;206;48.782;9.252;2023-08-17T09:23:22;28.60;33.00
439;DHT22;206;48.782;9.252;2023-08-17T09:25:49;28.60;33.10
439;DHT22;206;48.782;9.252;2023-08-17T09:28:18;28.60;32.70
439;DHT22;206;48.782;9.252;2023-08-17T09:30:56;28.70;32.40
439;DHT22;206;48.782;9.252;2023-08-17T09:33:26;28.70;32.50
439;DHT22;206;48.782;9.252;2023-08-17T09:35:53;28.80;32.30
439;DHT22;206;48.782;9.252;2023-08-17T09:38:19;28.80;32.30
439;DHT22;206;48.782;9.252;2023-08-17T09:40:46;28.80;32.00
439;DHT22;206;48.782;9.252;2023-08-17T09:43:13;28.90;32.20
439;DHT22;206;48.782;9.252;2023-08-17T09:45:39;28.90;31.80
439;DHT22;206;48.782;9.252;2023-08-17T09:48:08;28.90;31.70
439;DHT22;206;48.782;9.252;2023-08-17T09:50:34;28.90;32.00
439;DHT22;206;48.782;9.252;2023-08-17T09:53:02;28.90;32.20
439;DHT22;206;48.782;9.252;2023-08-17T09:55:30;28.90;32.30
439;DHT22;206;48.782;9.252;2023-08-17T09:57:57;29.00;31.90
439;DHT22;206;48.782;9.252;2023-08-17T10:00:24;29.00;31.40
439;DHT22;206;48.782;9.252;2023-08-17T10:02:51;28.90;32.00
439;DHT22;206;48.782;9.252;2023-08-17T10:05:20;28.90;32.60
439;DHT22;206;48.782;9.252;2023-08-17T10:07:53;28.80;31.80
439;DHT22;206;48.782;9.252;2023-08-17T10:10:22;29.00;31.60
439;DHT22;206;48.782;9.252;2023-08-17T10:13:12;29.10;31.20
439;DHT22;206;48.782;9.252;2023-08-17T10:18:35;29.10;30.90
439;DHT22;206;48.782;9.252;2023-08-17T10:21:06;29.20;30.40
439;DHT22;206;48.782;9.252;2023-08-17T10:23:33;29.20;30.50
439;DHT22;206;48.782;9.252;2023-08-17T10:26:01;29.30;31.00
439;DHT22;206;48.782;9.252;2023-08-17T10:28:31;29.40;30.50
439;DHT22;206;48.782;9.252;2023-08-17T10:30:57;29.50;29.80
439;DHT22;206;48.782;9.252;2023-08-17T10:33:24;29.60;29.60
439;DHT22;206;48.782;9.252;2023-08-17T10:35:51;29.60;29.60
439;DHT22;206;48.782;9.252;2023-08-17T10:38:17;29.70;29.70
439;DHT22;206;48.782;9.252;2023-08-17T10:40:43;29.70;29.70
439;DHT22;206;48.782;9.252;2023-08-17T10:43:08;29.70;29.70
439;DHT22;206;48.782;9.252;2023-08-17T10:45:35;29.90;29.80
439;DHT22;206;48.782;9.252;2023-08-17T10:50:38;30.10;28.20
439;DHT22;206;48.782;9.252;2023-08-17T10:53:13;30.10;27.60
439;DHT22;206;48.782;9.252;2023-08-17T10:55:45;30.00;28.20
439;DHT22;206;48.782;9.252;2023-08-17T10:58:14;29.90;27.60
439;DHT22;206;48.782;9.252;2023-08-17T11:00:40;29.80;26.90
439;DHT22;206;48.782;9.252;2023-08-17T11:03:10;29.90;27.40
439;DHT22;206;48.782;9.252;2023-08-17T11:05:42;29.90;27.30
439;DHT22;206;48.782;9.252;2023-08-17T11:08:32;30.00;27.50
439;DHT22;206;48.782;9.252;2023-08-17T11:10:59;30.10;27.60
439;DHT22;206;48.782;9.252;2023-08-17T11:13:27;30.30;27.70
439;DHT22;206;48.782;9.252;2023-08-17T11:15:53;30.30;27.80
439;DHT22;206;48.782;9.252;2023-08-17T11:18:19;30.40;27.30
439;DHT22;206;48.782;9.252;2023-08-17T11:20:44;30.50;26.50
439;DHT22;206;48.782;9.252;2023-08-17T11:23:10;30.40;26.50
439;DHT22;206;48.782;9.252;2023-08-17T11:25:37;30.40;26.80
439;DHT22;206;48.782;9.252;2023-08-17T11:28:04;30.30;27.00
439;DHT22;206;48.782;9.252;2023-08-17T11:30:31;30.30;26.50
439;DHT22;206;48.782;9.252;2023-08-17T11:32:59;30.20;26.30
439;DHT22;206;48.782;9.252;2023-08-17T11:35:25;30.30;25.60
439;DHT22;206;48.782;9.252;2023-08-17T11:37:51;30.30;25.80
439;DHT22;206;48.782;9.252;2023-08-17T11:40:16;30.20;26.10
439;DHT22;206;48.782;9.252;2023-08-17T11:42:43;30.20;26.30
439;DHT22;206;48.782;9.252;2023-08-17T11:45:09;30.30;25.80
439;DHT22;206;48.782;9.252;2023-08-17T11:47:38;30.30;25.40
439;DHT22;206;48.782;9.252;2023-08-17T11:50:08;30.50;25.00
439;DHT22;206;48.782;9.252;2023-08-17T11:52:34;30.70;24.20
439;DHT22;206;48.782;9.252;2023-08-17T11:55:02;30.90;23.30
439;DHT22;206;48.782;9.252;2023-08-17T11:57:30;30.90;22.50
439;DHT22;206;48.782;9.252;2023-08-17T11:59:56;30.90;21.90
439;DHT22;206;48.782;9.252;2023-08-17T12:02:26;30.90;21.90
439;DHT22;206;48.782;9.252;2023-08-17T12:04:52;30.90;23.60
439;DHT22;206;48.782;9.252;2023-08-17T12:07:19;31.00;24.10
439;DHT22;206;48.782;9.252;2023-08-17T12:09:48;31.00;24.20
439;DHT22;206;48.782;9.252;2023-08-17T12:12:17;31.00;23.40
439;DHT22;206;48.782;9.252;2023-08-17T12:14:43;31.00;23.80
439;DHT22;206;48.782;9.252;2023-08-17T12:17:16;31.10;23.20
439;DHT22;206;48.782;9.252;2023-08-17T12:19:43;31.10;23.40
439;DHT22;206;48.782;9.252;2023-08-17T12:22:09;31.10;24.00
439;DHT22;206;48.782;9.252;2023-08-17T12:24:35;31.00;23.80
439;DHT22;206;48.782;9.252;2023-08-17T12:27:02;31.00;23.90
439;DHT22;206;48.782;9.252;2023-08-17T12:29:28;31.00;24.30
439;DHT22;206;48.782;9.252;2023-08-17T12:31:57;30.90;24.80
439;DHT22;206;48.782;9.252;2023-08-17T12:34:22;30.80;25.10
439;DHT22;206;48.782;9.252;2023-08-17T12:36:49;30.70;25.40
439;DHT22;206;48.782;9.252;2023-08-17T12:39:15;30.60;26.50
439;DHT22;206;48.782;9.252;2023-08-17T12:41:41;30.50;27.00
439;DHT22;206;48.782;9.252;2023-08-17T12:44:08;30.40;28.00
439;DHT22;206;48.782;9.252;2023-08-17T12:46:34;30.30;28.20
439;DHT22;206;48.782;9.252;2023-08-17T12:49:00;30.20;28.60
439;DHT22;206;48.782;9.252;2023-08-17T12:51:26;30.00;28.90
439;DHT22;206;48.782;9.252;2023-08-17T12:53:51;30.00;29.80
439;DHT22;206;48.782;9.252;2023-08-17T12:56:17;29.90;29.80
439;DHT22;206;48.782;9.252;2023-08-17T12:58:43;29.90;30.10
439;DHT22;206;48.782;9.252;2023-08-17T13:01:08;29.80;31.00
439;DHT22;206;48.782;9.252;2023-08-17T13:03:34;29.80;31.50
439;DHT22;206;48.782;9.252;2023-08-17T13:05:59;29.80;31.60
439;DHT22;206;48.782;9.252;2023-08-17T13:08:25;29.70;31.30
439;DHT22;206;48.782;9.252;2023-08-17T13:10:50;29.60;31.70
439;DHT22;206;48.782;9.252;2023-08-17T13:13:16;29.40;31.90
439;DHT22;206;48.782;9.252;2023-08-17T13:15:42;29.30;32.50
439;DHT22;206;48.782;9.252;2023-08-17T13:18:07;29.20;33.20
439;DHT22;206;48.782;9.252;2023-08-17T13:20:33;29.20;33.30
439;DHT22;206;48.782;9.252;2023-08-17T13:22:59;29.20;33.40
439;DHT22;206;48.782;9.252;2023-08-17T13:25:25;29.20;33.40
439;DHT22;206;48.782;9.252;2023-08-17T13:27:50;29.20;33.50
439;DHT22;206;48.782;9.252;2023-08-17T13:30:16;29.20;33.10
439;DHT22;206;48.782;9.252;2023-08-17T13:32:42;29.20;32.40
439;DHT22;206;48.782;9.252;2023-08-17T13:35:08;29.20;32.70
439;DHT22;206;48.782;9.252;2023-08-17T13:37:36;29.10;34.50
439;DHT22;206;48.782;9.252;2023-08-17T13:40:01;29.00;36.50
439;DHT22;206;48.782;9.252;2023-08-17T13:42:27;28.90;37.70
439;DHT22;206;48.782;9.252;2023-08-17T13:44:53;28.80;38.70
439;DHT22;206;48.782;9.252;2023-08-17T13:47:19;28.80;39.40
439;DHT22;206;48.782;9.252;2023-08-17T13:49:44;28.60;40.60
439;DHT22;206;48.782;9.252;2023-08-17T13:52:10;28.60;41.50
439;DHT22;206;48.782;9.252;2023-08-17T13:54:36;28.50;41.30
439;DHT22;206;48.782;9.252;2023-08-17T13:57:01;28.40;41.40
439;DHT22;206;48.782;9.252;2023-08-17T13:59:27;28.40;41.80
439;DHT22;206;48.782;9.252;2023-08-17T14:01:55;28.40;41.80
439;DHT22;206;48.782;9.252;2023-08-17T14:04:21;28.20;42.50
439;DHT22;206;48.782;9.252;2023-08-17T14:06:47;28.10;43.80
439;DHT22;206;48.782;9.252;2023-08-17T14:09:13;27.90;44.90
439;DHT22;206;48.782;9.252;2023-08-17T14:11:39;27.80;45.00
439;DHT22;206;48.782;9.252;2023-08-17T14:14:05;27.70;46.00
439;DHT22;206;48.782;9.252;2023-08-17T14:16:31;27.60;47.00
439;DHT22;206;48.782;9.252;2023-08-17T14:18:56;27.30;48.30
439;DHT22;206;48.782;9.252;2023-08-17T14:21:22;27.20;49.10
439;DHT22;206;48.782;9.252;2023-08-17T14:23:48;27.00;50.20
439;DHT22;206;48.782;9.252;2023-08-17T14:26:14;27.00;50.90
439;DHT22;206;48.782;9.252;2023-08-17T14:28:40;27.00;51.00
439;DHT22;206;48.782;9.252;2023-08-17T14:31:06;27.00;51.40
439;DHT22;206;48.782;9.252;2023-08-17T14:33:31;27.10;51.10
439;DHT22;206;48.782;9.252;2023-08-17T14:35:57;27.10;51.10
439;DHT22;206;48.782;9.252;2023-08-17T14:38:23;27.10;51.10
439;DHT22;206;48.782;9.252;2023-08-17T14:40:48;27.00;51.10
439;DHT22;206;48.782;9.252;2023-08-17T14:43:15;27.00;51.80
439;DHT22;206;48.782;9.252;2023-08-17T14:45:41;26.90;51.50
439;DHT22;206;48.782;9.252;2023-08-17T14:48:07;26.90;50.70
439;DHT22;206;48.782;9.252;2023-08-17T14:50:34;26.90;50.80
439;DHT22;206;48.782;9.252;2023-08-17T14:53:00;27.00;50.10
439;DHT22;206;48.782;9.252;2023-08-17T14:55:29;27.00;49.00
439;DHT22;206;48.782;9.252;2023-08-17T14:57:55;27.00;48.50
439;DHT22;206;48.782;9.252;2023-08-17T15:00:21;27.00;48.50
439;DHT22;206;48.782;9.252;2023-08-17T15:02:46;27.00;48.50
439;DHT22;206;48.782;9.252;2023-08-17T15:05:12;26.90;48.40
439;DHT22;206;48.782;9.252;2023-08-17T15:07:37;27.00;48.50
439;DHT22;206;48.782;9.252;2023-08-17T15:10:03;27.00;48.50
439;DHT22;206;48.782;9.252;2023-08-17T15:12:29;27.00;47.40
439;DHT22;206;48.782;9.252;2023-08-17T15:14:55;27.10;46.80
439;DHT22;206;48.782;9.252;2023-08-17T15:17:20;27.20;46.40
439;DHT22;206;48.782;9.252;2023-08-17T15:19:46;27.20;46.10
439;DHT22;206;48.782;9.252;2023-08-17T15:22:11;27.20;45.60
439;DHT22;206;48.782;9.252;2023-08-17T15:24:37;27.20;45.70
439;DHT22;206;48.782;9.252;2023-08-17T15:27:02;27.20;46.20
439;DHT22;206;48.782;9.252;2023-08-17T15:29:28;27.30;46.20
439;DHT22;206;48.782;9.252;2023-08-17T15:31:54;27.30;46.20
439;DHT22;206;48.782;9.252;2023-08-17T15:34:19;27.30;46.10
439;DHT22;206;48.782;9.252;2023-08-17T15:36:45;27.50;45.80
439;DHT22;206;48.782;9.252;2023-08-17T15:39:10;27.50;45.70
439;DHT22;206;48.782;9.252;2023-08-17T15:41:37;27.50;46.00
439;DHT22;206;48.782;9.252;2023-08-17T15:44:03;27.50;46.30
439;DHT22;206;48.782;9.252;2023-08-17T15:46:29;27.50;46.60
439;DHT22;206;48.782;9.252;2023-08-17T15:48:56;27.50;46.60
439;DHT22;206;48.782;9.252;2023-08-17T15:51:22;27.60;46.30
439;DHT22;206;48.782;9.252;2023-08-17T15:53:48;27.60;45.90
439;DHT22;206;48.782;9.252;2023-08-17T15:56:14;27.70;45.70
439;DHT22;206;48.782;9.252;2023-08-17T15:58:41;27.70;45.30
439;DHT22;206;48.782;9.252;2023-08-17T16:01:07;27.80;44.70
439;DHT22;206;48.782;9.252;2023-08-17T16:03:32;27.90;44.00
439;DHT22;206;48.782;9.252;2023-08-17T16:05:58;27.90;43.80
439;DHT22;206;48.782;9.252;2023-08-17T16:08:23;28.00;43.50
439;DHT22;206;48.782;9.252;2023-08-17T16:10:49;28.00;43.60
439;DHT22;206;48.782;9.252;2023-08-17T16:13:15;28.00;43.80
439;DHT22;206;48.782;9.252;2023-08-17T16:15:40;27.90;44.00
439;DHT22;206;48.782;9.252;2023-08-17T16:18:06;27.90;44.10
439;DHT22;206;48.782;9.252;2023-08-17T16:20:32;27.80;44.70
439;DHT22;206;48.782;9.252;2023-08-17T16:22:59;27.70;45.30
439;DHT22;206;48.782;9.252;2023-08-17T16:25:25;27.70;45.30
439;DHT22;206;48.782;9.252;2023-08-17T16:27:51;27.70;45.50
439;DHT22;206;48.782;9.252;2023-08-17T16:30:17;27.70;45.30
439;DHT22;206;48.782;9.252;2023-08-17T16:32:42;27.70;45.90
439;DHT22;206;48.782;9.252;2023-08-17T16:35:08;27.60;46.20